createdAt,value
2023-03-26T00:00:16.988Z,98283.75
2023-03-26T00:03:20.606Z,98289.25
2023-03-26T00:06:25.818Z,98286.41
2023-03-26T00:09:29.881Z,98288.91
2023-03-26T00:12:31.731Z,98287.59
2023-03-26T00:15:42.970Z,98279.13
2023-03-26T00:18:49.023Z,98282.34
2023-03-26T00:21:52.570Z,98275.16
2023-03-26T00:24:57.018Z,98272.28
2023-03-26T00:27:59.317Z,98271.84
2023-03-26T00:31:08.017Z,98265.84
2023-03-26T00:34:10.553Z,98261.69
2023-03-26T00:37:14.338Z,98255.69
2023-03-26T00:40:16.276Z,98255.22
2023-03-26T00:43:19.693Z,98254.69
2023-03-26T00:46:22.281Z,98254.69
2023-03-26T00:49:26.814Z,98253.03
2023-03-26T00:52:28.859Z,98250.34
2023-03-26T00:55:34.562Z,98251.72
2023-03-26T00:58:37.212Z,98252.28
2023-03-26T01:01:43.559Z,98250.63
2023-03-26T01:04:48.507Z,98248.41
2023-03-26T01:07:51.726Z,98245.75
2023-03-26T01:11:03.109Z,98243.25
2023-03-26T01:14:11.747Z,98233.22
2023-03-26T01:17:14.143Z,98244.53
2023-03-26T01:20:26.782Z,98240.03
2023-03-26T01:23:37.482Z,98236.72
2023-03-26T01:27:04.909Z,98220.13
2023-03-26T01:30:25.057Z,98219.97
2023-03-26T01:33:34.029Z,98235.16
2023-03-26T01:36:45.823Z,98217.66
2023-03-26T01:40:38.815Z,98213.13
2023-03-26T01:43:52.667Z,98211.75
2023-03-26T01:46:55.650Z,98211.13
2023-03-26T01:49:57.589Z,98214.25
2023-03-26T01:52:59.897Z,98209.56
2023-03-26T01:56:21.570Z,98211.84
2023-03-26T02:00:01.765Z,98209.00
2023-03-26T02:03:30.492Z,98214.91
2023-03-26T02:06:51.819Z,98210.03
2023-03-26T02:10:00.748Z,98207.72
2023-03-26T02:13:03.272Z,98202.84
2023-03-26T02:16:08.895Z,98193.81
2023-03-26T02:19:17.481Z,98203.66
2023-03-26T02:22:19.368Z,98195.84
2023-03-26T02:25:22.042Z,98193.34
2023-03-26T02:28:27.385Z,98190.31
2023-03-26T02:31:32.050Z,98192.44
2023-03-26T02:34:34.440Z,98182.75
2023-03-26T02:37:39.411Z,98173.25
2023-03-26T02:40:48.589Z,98178.25
2023-03-26T02:43:50.605Z,98187.09
2023-03-26T02:46:55.945Z,98182.38
2023-03-26T02:50:16.513Z,98175.47
2023-03-26T02:53:40.646Z,98180.16
2023-03-26T02:57:09.937Z,98168.09
2023-03-26T03:00:15.180Z,98175.00
2023-03-26T03:03:24.323Z,98182.28
2023-03-26T03:06:40.672Z,98166.44
2023-03-26T03:09:42.873Z,98157.88
2023-03-26T03:13:05.926Z,98160.72
2023-03-26T03:16:08.927Z,98162.84
2023-03-26T03:19:12.978Z,98162.19
2023-03-26T03:22:15.612Z,98150.88
2023-03-26T03:25:18.376Z,98159.06
2023-03-26T03:28:23.563Z,98159.53
2023-03-26T03:31:27.295Z,98163.22
2023-03-26T03:34:38.691Z,98162.19
2023-03-26T03:37:41.457Z,98154.44
2023-03-26T03:40:44.347Z,98154.00
2023-03-26T03:43:46.426Z,98152.25
2023-03-26T03:46:55.603Z,98152.63
2023-03-26T03:50:00.153Z,98158.69
2023-03-26T03:53:06.545Z,98159.50
2023-03-26T03:56:10.599Z,98160.72
2023-03-26T03:59:50.926Z,98162.00
2023-03-26T04:02:55.901Z,98156.84
2023-03-26T04:06:01.806Z,98162.19
2023-03-26T04:09:04.121Z,98166.16
2023-03-26T04:12:06.518Z,98163.28
2023-03-26T04:15:16.907Z,98157.75
2023-03-26T04:18:22.357Z,98165.31
2023-03-26T04:21:26.374Z,98154.34
2023-03-26T04:24:38.424Z,98163.00
2023-03-26T04:28:09.316Z,98153.06
2023-03-26T04:31:31.926Z,98158.31
2023-03-26T04:34:36.407Z,98150.13
2023-03-26T04:37:48.220Z,98155.75
2023-03-26T04:40:57.167Z,98155.56
2023-03-26T04:44:37.374Z,98161.09
2023-03-26T04:47:46.565Z,98154.34
2023-03-26T04:50:49.748Z,98156.38
2023-03-26T04:54:01.154Z,98160.91
2023-03-26T04:57:25.609Z,98161.81
2023-03-26T05:00:47.788Z,98157.28
2023-03-26T05:03:50.146Z,98161.81
2023-03-26T05:06:56.878Z,98160.44
2023-03-26T05:10:24.907Z,98164.00
2023-03-26T05:13:35.677Z,98167.44
2023-03-26T05:16:42.901Z,98148.44
2023-03-26T05:19:46.778Z,98155.63
2023-03-26T05:22:50.792Z,98161.91
2023-03-26T05:26:07.792Z,98153.88
2023-03-26T05:29:10.721Z,98168.53
2023-03-26T05:32:18.688Z,98168.44
2023-03-26T05:35:22.057Z,98159.78
2023-03-26T05:38:29.106Z,98162.00
2023-03-26T05:41:39.117Z,98167.63
2023-03-26T05:44:41.314Z,98167.50
2023-03-26T05:47:54.340Z,98175.91
2023-03-26T05:50:59.159Z,98180.41
2023-03-26T05:54:06.373Z,98170.56
2023-03-26T05:57:29.820Z,98166.59
2023-03-26T06:00:58.518Z,98169.09
2023-03-26T06:04:10.695Z,98174.25
2023-03-26T06:07:16.916Z,98181.53
2023-03-26T06:10:33.400Z,98192.28
2023-03-26T06:13:35.391Z,98191.66
2023-03-26T06:16:37.840Z,98182.91
2023-03-26T06:19:55.454Z,98176.38
2023-03-26T06:23:06.194Z,98182.63
2023-03-26T06:26:26.950Z,98185.41
2023-03-26T06:30:01.172Z,98177.38
2023-03-26T06:33:28.890Z,98169.91
2023-03-26T06:36:31.196Z,98172.59
2023-03-26T06:39:39.059Z,98185.22
2023-03-26T06:43:07.957Z,98173.94
2023-03-26T06:46:41.613Z,98161.97
2023-03-26T06:50:04.540Z,98169.63
2023-03-26T06:53:13.992Z,98168.69
2023-03-26T06:56:37.174Z,98177.16
2023-03-26T06:59:55.364Z,98175.06
2023-03-26T07:03:17.373Z,98169.59
2023-03-26T07:06:42.119Z,98164.66
2023-03-26T07:10:02.873Z,98176.56
2023-03-26T07:13:10.827Z,98168.78
2023-03-26T07:16:31.218Z,98175.16
2023-03-26T07:19:55.196Z,98176.06
2023-03-26T07:23:02.218Z,98191.22
2023-03-26T07:26:39.507Z,98184.09
2023-03-26T07:30:05.957Z,98182.44
2023-03-26T07:33:27.150Z,98173.59
2023-03-26T07:37:03.721Z,98185.31
2023-03-26T07:40:34.587Z,98189.50
2023-03-26T07:44:21.250Z,98177.91
2023-03-26T07:47:34.650Z,98180.09
2023-03-26T07:50:50.755Z,98172.75
2023-03-26T07:54:06.780Z,98172.81
2023-03-26T07:57:48.423Z,98175.88
2023-03-26T08:01:28.127Z,98183.63
2023-03-26T08:04:57.083Z,98179.94
2023-03-26T08:09:05.643Z,98174.16
2023-03-26T08:12:48.660Z,98177.28
2023-03-26T08:16:01.292Z,98171.00
2023-03-26T08:19:28.002Z,98168.16
2023-03-26T08:22:38.361Z,98168.88
2023-03-26T08:26:05.746Z,98156.63
2023-03-26T08:29:23.181Z,98165.84
2023-03-26T08:32:27.103Z,98166.31
2023-03-26T08:35:29.201Z,98158.78
2023-03-26T08:38:31.105Z,98162.44
2023-03-26T08:41:32.933Z,98166.69
2023-03-26T08:44:53.436Z,98164.97
2023-03-26T08:48:19.956Z,98167.06
2023-03-26T08:51:47.341Z,98167.19
2023-03-26T08:55:19.483Z,98174.34
2023-03-26T08:58:51.721Z,98164.53
2023-03-26T09:02:56.412Z,98165.38
2023-03-26T09:06:32.376Z,98168.09
2023-03-26T09:09:50.792Z,98163.38
2023-03-26T09:13:34.074Z,98163.19
2023-03-26T09:16:58.257Z,98165.53
2023-03-26T09:20:21.975Z,98164.09
2023-03-26T09:23:38.770Z,98157.25
2023-03-26T09:26:55.145Z,98159.09
2023-03-26T09:30:30.140Z,98150.75
2023-03-26T09:33:52.415Z,98148.06
2023-03-26T09:37:28.619Z,98147.78
2023-03-26T09:40:45.238Z,98149.78
2023-03-26T09:43:55.157Z,98144.50
2023-03-26T09:47:09.139Z,98141.84
2023-03-26T09:50:14.899Z,98143.50
2023-03-26T09:53:45.922Z,98148.50
2023-03-26T09:57:03.308Z,98141.59
2023-03-26T10:00:29.560Z,98139.47
2023-03-26T10:03:38.581Z,98135.69
2023-03-26T10:07:06.962Z,98143.34
2023-03-26T10:11:03.082Z,98146.81
2023-03-26T10:14:32.632Z,98139.41
2023-03-26T10:17:46.584Z,98136.22
2023-03-26T10:21:12.602Z,98140.38
2023-03-26T10:24:57.248Z,98133.56
2023-03-26T10:28:21.423Z,98132.44
2023-03-26T10:31:42.818Z,98132.72
2023-03-26T10:35:08.929Z,98123.38
2023-03-26T10:38:32.242Z,98123.88
2023-03-26T10:41:41.402Z,98126.34
2023-03-26T10:45:05.205Z,98122.44
2023-03-26T10:48:27.898Z,98121.81
2023-03-26T10:51:44.581Z,98127.72
2023-03-26T10:55:12.073Z,98132.13
2023-03-26T10:58:49.768Z,98121.28
2023-03-26T11:02:37.649Z,98115.34
2023-03-26T11:05:58.237Z,98116.56
2023-03-26T11:09:12.422Z,98114.50
2023-03-26T11:12:32.013Z,98113.47
2023-03-26T11:16:12.990Z,98112.03
2023-03-26T11:19:29.121Z,98124.25
2023-03-26T11:22:52.210Z,98122.59
2023-03-26T11:25:57.202Z,98123.28
2023-03-26T11:29:39.074Z,98109.72
2023-03-26T11:32:52.010Z,98112.81
2023-03-26T11:36:01.613Z,98112.81
2023-03-26T11:39:10.784Z,98117.31
2023-03-26T11:42:17.454Z,98111.50
2023-03-26T11:45:24.294Z,98104.31
2023-03-26T11:48:37.157Z,98106.78
2023-03-26T11:51:43.214Z,98097.56
2023-03-26T11:54:48.535Z,98090.75
2023-03-26T11:57:56.053Z,98088.94
2023-03-26T12:00:59.151Z,98097.13
2023-03-26T12:04:13.713Z,98093.47
2023-03-26T12:07:17.324Z,98098.00
2023-03-26T12:10:39.325Z,98093.91
2023-03-26T12:13:52.901Z,98090.38
2023-03-26T12:17:00.488Z,98087.31
2023-03-26T12:20:29.957Z,98086.88
2023-03-26T12:23:56.982Z,98087.28
2023-03-26T12:27:02.813Z,98091.78
2023-03-26T12:30:26.794Z,98088.06
2023-03-26T12:33:34.268Z,98084.59
2023-03-26T12:36:39.145Z,98078.81
2023-03-26T12:40:12.008Z,98074.31
2023-03-26T12:44:51.384Z,98075.38
2023-03-26T12:47:58.180Z,98072.69
2023-03-26T12:50:14.778Z,98079.06
2023-03-26T12:53:48.398Z,98069.75
2023-03-26T12:57:24.031Z,98081.25
2023-03-26T13:00:48.940Z,98064.34
2023-03-26T13:04:03.826Z,98060.47
2023-03-26T13:07:40.610Z,98059.88
2023-03-26T13:11:10.509Z,98053.50
2023-03-26T13:14:37.019Z,98053.31
2023-03-26T13:18:07.635Z,98041.75
2023-03-26T13:21:31.499Z,98048.97
2023-03-26T13:25:11.058Z,98051.66
2023-03-26T13:28:41.011Z,98051.03
2023-03-26T13:31:52.085Z,98056.56
2023-03-26T13:35:09.103Z,98056.53
2023-03-26T13:38:33.863Z,98050.31
2023-03-26T13:41:59.491Z,98059.56
2023-03-26T13:45:10.137Z,98052.06
2023-03-26T13:48:21.459Z,98047.34
2023-03-26T13:51:45.384Z,98045.28
2023-03-26T13:55:18.642Z,98040.97
2023-03-26T13:58:34.653Z,98041.16
2023-03-26T14:01:45.409Z,98036.63
2023-03-26T14:04:52.608Z,98039.91
2023-03-26T14:08:10.868Z,98037.84
2023-03-26T14:11:50.456Z,98045.50
2023-03-26T14:15:14.890Z,98045.25
2023-03-26T14:18:35.310Z,98042.97
2023-03-26T14:22:14.249Z,98043.75
2023-03-26T14:25:34.922Z,98034.69
2023-03-26T14:28:51.878Z,98045.72
2023-03-26T14:32:15.687Z,98040.75
2023-03-26T14:35:35.298Z,98041.16
2023-03-26T14:39:07.976Z,98039.50
2023-03-26T14:42:21.318Z,98042.56
2023-03-26T14:46:18.507Z,98034.09
2023-03-26T14:49:23.146Z,98035.38
2023-03-26T14:52:47.984Z,98025.63
2023-03-26T14:56:12.863Z,98026.84
2023-03-26T14:59:34.267Z,98019.06
2023-03-26T15:02:57.624Z,98024.41
2023-03-26T15:06:39.020Z,98028.31
2023-03-26T15:10:24.005Z,98025.59
2023-03-26T15:13:48.735Z,98016.09
2023-03-26T15:17:02.812Z,98012.59
2023-03-26T15:20:54.578Z,98013.66
2023-03-26T15:24:27.879Z,98012.66
2023-03-26T15:28:11.655Z,98016.34
2023-03-26T15:31:25.268Z,98010.78
2023-03-26T15:34:33.647Z,98007.72
2023-03-26T15:38:09.446Z,98003.41
2023-03-26T15:41:17.709Z,97999.25
2023-03-26T15:44:50.908Z,98002.75
2023-03-26T15:48:19.386Z,97993.91
2023-03-26T15:51:46.819Z,97996.97
2023-03-26T15:55:03.196Z,98001.91
2023-03-26T15:58:18.441Z,98000.03
2023-03-26T16:01:38.218Z,98001.25
2023-03-26T16:04:50.421Z,97997.94
2023-03-26T16:07:58.862Z,97998.78
2023-03-26T16:11:07.792Z,97995.47
2023-03-26T16:14:27.162Z,97991.97
2023-03-26T16:18:09.300Z,97996.69
2023-03-26T16:21:32.752Z,97999.38
2023-03-26T16:25:27.250Z,97999.56
2023-03-26T16:28:33.961Z,98003.06
2023-03-26T16:31:37.779Z,98000.59
2023-03-26T16:35:10.226Z,98004.66
2023-03-26T16:38:26.844Z,98010.03
2023-03-26T16:41:52.301Z,98014.75
2023-03-26T16:45:12.473Z,98020.47
2023-03-26T16:48:29.311Z,98019.84
2023-03-26T16:51:46.364Z,98014.25
2023-03-26T16:55:44.778Z,98011.56
2023-03-26T16:59:06.940Z,98019.59
2023-03-26T17:02:31.861Z,98017.13
2023-03-26T17:05:37.755Z,98018.97
2023-03-26T17:08:53.448Z,98023.50
2023-03-26T17:12:18.751Z,98017.88
2023-03-26T17:15:43.752Z,98023.03
2023-03-26T17:19:04.429Z,98015.22
2023-03-26T17:22:48.528Z,98023.44
2023-03-26T17:26:17.726Z,98018.03
2023-03-26T17:29:51.176Z,98012.88
2023-03-26T17:32:56.061Z,98022.75
2023-03-26T17:36:15.192Z,98015.34
2023-03-26T17:40:01.703Z,98024.41
2023-03-26T17:43:14.212Z,98023.56
2023-03-26T17:46:24.998Z,98029.31
2023-03-26T17:49:33.164Z,98021.09
2023-03-26T17:52:44.432Z,98027.44
2023-03-26T17:55:50.125Z,98022.69
2023-03-26T17:58:58.763Z,98021.03
2023-03-26T18:02:24.730Z,98011.16
2023-03-26T18:05:29.879Z,98015.88
2023-03-26T18:09:06.181Z,98006.44
2023-03-26T18:12:24.916Z,98019.81
2023-03-26T18:15:45.519Z,98020.00
2023-03-26T18:19:03.439Z,98015.69
2023-03-26T18:22:07.453Z,98020.38
2023-03-26T18:25:36.330Z,98013.56
2023-03-26T18:28:43.692Z,98013.56
2023-03-26T18:31:48.451Z,98011.53
2023-03-26T18:35:17.101Z,98019.75
2023-03-26T18:38:35.747Z,98020.59
2023-03-26T18:41:42.341Z,98019.56
2023-03-26T18:44:45.537Z,98019.13
2023-03-26T18:47:50.224Z,98019.94
2023-03-26T18:50:59.860Z,98015.22
2023-03-26T18:54:18.477Z,98017.06
2023-03-26T18:57:29.260Z,98016.00
2023-03-26T19:00:34.548Z,98018.03
2023-03-26T19:03:40.428Z,98004.47
2023-03-26T19:06:46.224Z,98012.06
2023-03-26T19:09:54.826Z,98013.06
2023-03-26T19:13:01.797Z,98011.59
2023-03-26T19:16:19.419Z,98021.09
2023-03-26T19:19:29.509Z,98018.03
2023-03-26T19:22:31.514Z,98016.00
2023-03-26T19:25:55.018Z,98009.81
2023-03-26T19:29:01.734Z,98014.34
2023-03-26T19:32:14.262Z,98016.00
2023-03-26T19:35:23.631Z,98011.47
2023-03-26T19:38:28.225Z,98008.81
2023-03-26T19:41:51.543Z,98003.44
2023-03-26T19:44:54.690Z,97999.31
2023-03-26T19:48:11.748Z,97998.75
2023-03-26T19:51:37.002Z,97998.34
2023-03-26T19:55:01.480Z,98005.16
2023-03-26T19:58:07.295Z,97994.66
2023-03-26T20:01:19.158Z,97984.53
2023-03-26T20:04:21.391Z,97994.84
2023-03-26T20:07:35.800Z,97992.19
2023-03-26T20:10:38.281Z,97983.34
2023-03-26T20:13:45.277Z,97983.97
2023-03-26T20:16:47.164Z,97985.63
2023-03-26T20:19:52.578Z,97989.13
2023-03-26T20:22:54.928Z,97984.78
2023-03-26T20:25:59.725Z,97982.31
2023-03-26T20:29:04.695Z,97979.84
2023-03-26T20:32:27.401Z,97974.47
2023-03-26T20:35:35.644Z,97977.53
2023-03-26T20:38:39.981Z,97976.53
2023-03-26T20:41:46.347Z,97970.97
2023-03-26T20:44:48.205Z,97976.53
2023-03-26T20:47:50.926Z,97965.00
2023-03-26T20:50:53.010Z,97970.97
2023-03-26T20:53:55.319Z,97969.53
2023-03-26T20:56:58.293Z,97964.81
2023-03-26T21:00:00.326Z,97964.16
2023-03-26T21:03:02.218Z,97964.63
2023-03-26T21:06:06.563Z,97958.44
2023-03-26T21:09:23.587Z,97966.28
2023-03-26T21:12:33.529Z,97959.47
2023-03-26T21:15:35.928Z,97967.47
2023-03-26T21:18:40.547Z,97961.31
2023-03-26T21:22:30.725Z,97949.41
2023-03-26T21:26:01.555Z,97947.94
2023-03-26T21:29:03.455Z,97954.09
2023-03-26T21:32:07.826Z,97947.34
2023-03-26T21:35:10.826Z,97950.66
2023-03-26T21:38:19.756Z,97958.69
2023-03-26T21:41:24.617Z,97960.34
2023-03-26T21:44:27.288Z,97961.56
2023-03-26T21:47:29.301Z,97953.72
2023-03-26T21:50:36.975Z,97954.56
2023-03-26T21:53:39.107Z,97945.69
2023-03-26T21:56:50.200Z,97944.50
2023-03-26T22:00:13.466Z,97949.66
2023-03-26T22:03:34.853Z,97944.69
2023-03-26T22:06:42.880Z,97944.69
2023-03-26T22:09:48.458Z,97943.03
2023-03-26T22:12:51.337Z,97942.00
2023-03-26T22:15:53.299Z,97942.59
2023-03-26T22:18:57.567Z,97944.03
2023-03-26T22:22:03.012Z,97943.84
2023-03-26T22:25:10.420Z,97941.38
2023-03-26T22:28:12.469Z,97944.03
2023-03-26T22:31:14.747Z,97937.69
2023-03-26T22:34:24.642Z,97934.19
2023-03-26T22:37:27.411Z,97939.09
2023-03-26T22:40:33.893Z,97938.06
2023-03-26T22:43:39.255Z,97937.03
2023-03-26T22:46:41.282Z,97933.34
2023-03-26T22:49:45.371Z,97932.53
2023-03-26T22:52:48.337Z,97921.00
2023-03-26T22:55:51.395Z,97921.81
2023-03-26T22:58:53.298Z,97917.94
2023-03-26T23:01:58.297Z,97921.44
2023-03-26T23:05:03.206Z,97920.63
2023-03-26T23:08:05.091Z,97919.34
2023-03-26T23:11:20.579Z,97926.78
2023-03-26T23:14:32.492Z,97924.94
2023-03-26T23:17:35.688Z,97921.44
2023-03-26T23:20:40.022Z,97919.34
2023-03-26T23:23:42.300Z,97920.56
2023-03-26T23:26:50.622Z,97924.44
2023-03-26T23:29:53.488Z,97918.28
2023-03-26T23:33:03.130Z,97922.59
2023-03-26T23:36:11.403Z,97918.66
2023-03-26T23:39:13.281Z,97916.63
2023-03-26T23:42:16.224Z,97911.47
2023-03-26T23:45:30.923Z,97912.69
2023-03-26T23:48:32.923Z,97911.84
2023-03-26T23:51:37.593Z,97912.69
2023-03-26T23:54:42.525Z,97916.00
2023-03-26T23:57:44.380Z,97918.47
